createdAt,value
2022-12-16T06:58:22.698Z,13.60
2022-12-16T07:01:13.539Z,13.50
2022-12-16T07:04:03.455Z,13.40
2022-12-16T07:07:11.815Z,13.30
2022-12-16T07:15:41.916Z,13.20
2022-12-16T07:18:27.458Z,13.20
2022-12-16T07:21:13.604Z,13.20
2022-12-16T07:24:00.410Z,13.20
2022-12-16T07:26:46.565Z,13.20
2022-12-16T07:29:33.792Z,13.10
2022-12-16T07:32:19.461Z,13.10
2022-12-16T07:35:25.547Z,13.00
2022-12-16T07:38:14.927Z,13.00
2022-12-16T07:41:02.882Z,13.10
2022-12-16T07:43:51.578Z,13.10
2022-12-16T07:46:37.760Z,13.00
2022-12-16T07:49:24.503Z,13.00
2022-12-16T07:52:15.957Z,13.10
2022-12-16T07:55:06.975Z,13.10
2022-12-16T07:57:53.590Z,13.20
2022-12-16T08:00:40.494Z,13.20
2022-12-16T08:03:28.667Z,13.30
2022-12-16T08:06:15.514Z,13.30
2022-12-16T08:09:02.582Z,13.40
2022-12-16T08:11:52.211Z,13.40
2022-12-16T08:14:41.617Z,13.50
2022-12-16T08:17:32.104Z,13.40
2022-12-16T08:20:20.528Z,13.40
2022-12-16T08:23:07.613Z,13.50
2022-12-16T08:25:56.859Z,13.50
2022-12-16T08:28:45.913Z,13.50
2022-12-16T08:31:34.593Z,13.60
2022-12-16T08:34:24.506Z,13.70
2022-12-16T08:37:13.196Z,13.80
2022-12-16T08:40:33.185Z,13.80
2022-12-16T08:43:12.682Z,13.90
2022-12-16T08:46:02.270Z,14.00
2022-12-16T08:48:48.587Z,14.10
2022-12-16T08:51:35.583Z,14.20
2022-12-16T08:54:25.947Z,14.20
2022-12-16T08:57:13.647Z,14.30
2022-12-16T09:00:03.814Z,14.40
2022-12-16T09:02:52.078Z,14.40
2022-12-16T09:05:41.967Z,14.50
2022-12-16T09:08:32.643Z,14.50
2022-12-16T09:11:27.178Z,14.60
2022-12-16T09:14:15.655Z,14.60
2022-12-16T09:17:04.980Z,14.70
2022-12-16T09:19:55.326Z,14.70
2022-12-16T09:22:44.221Z,14.70
2022-12-16T09:25:32.667Z,14.80
2022-12-16T09:28:21.974Z,14.80
2022-12-16T09:31:28.683Z,14.90
2022-12-16T09:34:31.693Z,14.80
2022-12-16T09:37:28.731Z,14.90
2022-12-16T09:40:18.680Z,14.90
2022-12-16T09:43:48.663Z,15.00
2022-12-16T09:47:18.732Z,15.00
2022-12-16T09:50:11.706Z,15.10
2022-12-16T09:53:12.652Z,15.20
2022-12-16T09:56:03.297Z,15.20
2022-12-16T09:58:59.735Z,15.20
2022-12-16T10:01:52.163Z,15.20
2022-12-16T10:04:46.006Z,15.30
2022-12-16T10:07:45.955Z,15.40
2022-12-16T10:11:19.012Z,15.30
2022-12-16T10:14:33.189Z,15.40
2022-12-16T10:17:39.707Z,15.40
2022-12-16T10:21:06.092Z,15.40
2022-12-16T10:24:28.630Z,15.50
2022-12-16T10:27:31.679Z,15.60
2022-12-16T10:30:21.737Z,15.70
2022-12-16T10:33:10.898Z,15.70
2022-12-16T10:36:16.034Z,15.70
2022-12-16T10:42:14.134Z,16.00
2022-12-16T10:45:21.020Z,16.20
2022-12-16T10:48:23.486Z,16.40
2022-12-16T10:51:12.763Z,16.50
2022-12-16T10:54:01.693Z,16.50
2022-12-16T10:57:15.354Z,16.50
2022-12-16T11:00:09.794Z,16.50
2022-12-16T11:02:59.425Z,16.50
2022-12-16T11:06:02.788Z,16.40
2022-12-16T11:08:57.987Z,16.40
2022-12-16T11:11:51.857Z,16.30
2022-12-16T11:15:05.669Z,16.20
2022-12-16T11:17:56.717Z,16.20
2022-12-16T11:20:47.175Z,16.20
2022-12-16T11:23:41.313Z,16.20
2022-12-16T11:26:38.064Z,16.30
2022-12-16T11:29:35.915Z,16.30
2022-12-16T11:32:49.820Z,16.30
2022-12-16T11:35:41.405Z,16.30
2022-12-16T11:38:59.273Z,16.30
2022-12-16T11:41:52.703Z,16.20
2022-12-16T11:45:05.250Z,16.10
2022-12-16T11:48:21.462Z,16.10
2022-12-16T11:51:19.416Z,16.00
2022-12-16T11:54:09.813Z,15.90
2022-12-16T11:57:03.144Z,15.90
2022-12-16T12:00:18.087Z,15.90
2022-12-16T12:03:32.337Z,15.90
2022-12-16T12:06:40.843Z,15.90
2022-12-16T12:09:36.784Z,15.90
2022-12-16T12:12:57.395Z,16.00
2022-12-16T12:19:19.191Z,16.00
2022-12-16T12:26:05.750Z,16.10
2022-12-16T12:29:13.895Z,16.10
2022-12-16T12:32:43.530Z,16.10
2022-12-16T12:36:08.095Z,16.20
2022-12-16T12:39:27.089Z,16.30
2022-12-16T12:42:22.899Z,16.40
2022-12-16T12:45:47.430Z,16.40
2022-12-16T12:48:41.142Z,16.40
2022-12-16T12:52:01.198Z,16.30
2022-12-16T12:55:05.372Z,16.30
2022-12-16T12:57:56.736Z,16.30
2022-12-16T13:00:48.989Z,16.30
2022-12-16T13:04:13.218Z,16.20
2022-12-16T13:07:02.130Z,16.20
2022-12-16T13:10:09.260Z,16.30
2022-12-16T13:12:57.092Z,16.30
2022-12-16T13:16:00.702Z,16.30
2022-12-16T13:19:09.677Z,16.40
2022-12-16T13:21:56.455Z,16.40
2022-12-16T13:24:48.229Z,16.50
2022-12-16T13:27:40.014Z,16.50
2022-12-16T13:30:47.404Z,16.50
2022-12-16T13:33:53.934Z,16.50
2022-12-16T13:37:07.945Z,16.50
2022-12-16T13:39:55.967Z,16.50
2022-12-16T13:43:20.560Z,16.40
2022-12-16T13:46:36.958Z,16.50
2022-12-16T13:50:17.256Z,16.50
2022-12-16T13:53:19.068Z,16.50
2022-12-16T13:56:20.270Z,16.50
2022-12-16T13:59:18.449Z,16.50
2022-12-16T14:02:21.908Z,16.50
2022-12-16T14:05:36.893Z,16.50
2022-12-16T14:08:24.788Z,16.50
2022-12-16T14:11:48.702Z,16.50
2022-12-16T14:14:53.087Z,16.50
2022-12-16T14:17:58.009Z,16.50
2022-12-16T14:21:00.301Z,16.50
2022-12-16T14:24:21.935Z,16.60
2022-12-16T14:27:13.590Z,16.60
2022-12-16T14:30:02.619Z,16.60
2022-12-16T14:32:53.008Z,16.60
2022-12-16T14:35:42.933Z,16.60
2022-12-16T14:38:51.278Z,16.60
2022-12-16T14:41:45.119Z,16.50
2022-12-16T14:44:53.858Z,16.50
2022-12-16T14:47:40.903Z,16.40
2022-12-16T14:50:43.401Z,16.30
2022-12-16T14:53:36.391Z,16.20
2022-12-16T14:56:42.016Z,16.10
2022-12-16T14:59:36.370Z,16.00
2022-12-16T15:02:56.414Z,16.00
2022-12-16T15:05:49.079Z,16.00
2022-12-16T15:08:38.366Z,16.00
2022-12-16T15:11:31.289Z,16.00
2022-12-16T15:14:22.399Z,16.10
2022-12-16T15:17:14.665Z,16.10
2022-12-16T15:20:13.598Z,16.10
2022-12-16T15:23:06.049Z,16.10
2022-12-16T15:25:53.015Z,16.10
2022-12-16T15:29:09.485Z,16.20
2022-12-16T15:32:03.488Z,16.20
2022-12-16T15:35:10.224Z,16.30
2022-12-16T15:38:04.766Z,16.20
2022-12-16T15:40:53.075Z,16.20
2022-12-16T15:43:57.675Z,16.30
2022-12-16T15:46:47.237Z,16.30
2022-12-16T15:49:56.891Z,16.30
2022-12-16T15:53:07.488Z,16.40
2022-12-16T15:56:04.349Z,16.40
2022-12-16T15:59:00.859Z,16.40
2022-12-16T16:02:04.734Z,16.50
2022-12-16T16:04:56.421Z,16.40
2022-12-16T16:07:47.100Z,16.40
2022-12-16T16:11:00.438Z,16.50
2022-12-16T16:13:51.329Z,16.50
2022-12-16T16:16:40.460Z,16.50
2022-12-16T16:19:50.181Z,16.50
2022-12-16T16:22:40.433Z,16.50
2022-12-16T16:25:30.438Z,16.50
2022-12-16T16:28:18.072Z,16.50
2022-12-16T16:31:06.115Z,16.50
2022-12-16T16:33:54.060Z,16.60
2022-12-16T16:36:40.174Z,16.60
2022-12-16T16:39:31.412Z,16.60
2022-12-16T16:42:18.118Z,16.60
2022-12-16T16:45:09.515Z,16.70
2022-12-16T16:48:03.112Z,16.70
2022-12-16T16:50:54.155Z,16.70
2022-12-16T16:53:43.419Z,16.80
2022-12-16T16:56:33.174Z,16.90
2022-12-16T16:59:20.665Z,16.90
2022-12-16T17:02:12.712Z,17.00
2022-12-16T17:05:00.508Z,17.00
2022-12-16T17:07:52.189Z,17.10
2022-12-16T17:10:43.382Z,17.10
2022-12-16T17:13:29.110Z,17.20
2022-12-16T17:16:15.424Z,17.30
2022-12-16T17:19:03.158Z,17.40
2022-12-16T17:21:52.420Z,17.50
2022-12-16T17:24:46.532Z,17.50
2022-12-16T17:27:41.223Z,17.60
2022-12-16T17:30:40.704Z,17.60
2022-12-16T17:33:31.514Z,17.60
2022-12-16T17:36:25.049Z,17.60
2022-12-16T17:39:14.455Z,17.60
2022-12-16T17:42:03.575Z,17.70
2022-12-16T17:44:52.302Z,17.70
2022-12-16T17:47:39.250Z,17.60
2022-12-16T17:50:29.872Z,17.60
2022-12-16T17:53:20.777Z,17.50
2022-12-16T17:56:13.561Z,17.40
2022-12-16T17:59:05.828Z,17.40
2022-12-16T18:01:54.368Z,17.30
2022-12-16T18:04:42.274Z,17.20
2022-12-16T18:07:29.248Z,17.10
2022-12-16T18:10:17.180Z,17.10
2022-12-16T18:13:08.510Z,17.00
2022-12-16T18:15:56.309Z,17.00
2022-12-16T18:18:46.295Z,16.90
2022-12-16T18:21:35.497Z,16.90
2022-12-16T18:24:28.235Z,16.90
2022-12-16T18:30:13.603Z,16.80
2022-12-16T18:33:01.227Z,16.80
2022-12-16T18:35:51.930Z,16.80
2022-12-16T18:38:46.048Z,16.80
2022-12-16T18:41:40.239Z,16.90
2022-12-16T18:44:33.775Z,16.90
2022-12-16T18:47:24.375Z,16.90
2022-12-16T18:50:11.690Z,17.00
2022-12-16T18:53:01.937Z,16.90
2022-12-16T18:55:53.513Z,16.90
2022-12-16T18:58:51.371Z,16.90
2022-12-16T19:01:43.659Z,16.80
2022-12-16T19:04:36.260Z,16.80
2022-12-16T19:07:23.283Z,16.80
2022-12-16T19:10:09.511Z,16.90
2022-12-16T19:13:02.600Z,16.90
2022-12-16T19:15:51.340Z,16.90
2022-12-16T19:18:41.464Z,16.90
2022-12-16T19:21:30.330Z,16.80
2022-12-16T19:24:17.781Z,16.80
2022-12-16T19:30:07.649Z,16.70
2022-12-16T19:33:17.004Z,16.70
2022-12-16T19:36:06.618Z,16.60
2022-12-16T19:38:55.114Z,16.60
2022-12-16T19:41:49.658Z,16.60
2022-12-16T19:44:37.974Z,16.50
2022-12-16T19:47:32.434Z,16.50
2022-12-16T19:50:22.361Z,16.50
2022-12-16T19:53:10.924Z,16.60
2022-12-16T19:56:01.513Z,16.50
2022-12-16T19:58:51.053Z,16.50
2022-12-16T20:01:39.532Z,16.60
2022-12-16T20:04:28.816Z,16.60
2022-12-16T20:07:17.774Z,16.60
2022-12-16T20:10:09.089Z,16.70
2022-12-16T20:13:01.487Z,16.60
2022-12-16T20:15:49.387Z,16.60
2022-12-16T20:18:39.880Z,16.60
2022-12-16T20:21:27.356Z,16.70
2022-12-16T20:24:14.376Z,16.70
2022-12-16T20:27:01.659Z,16.80
2022-12-16T20:29:48.399Z,16.80
2022-12-16T20:32:38.735Z,16.90
2022-12-16T20:35:28.732Z,17.00
2022-12-16T20:38:17.805Z,17.10
2022-12-16T20:41:26.671Z,17.20
2022-12-16T20:44:13.611Z,17.20
2022-12-16T20:47:03.975Z,17.20
2022-12-16T20:49:53.571Z,17.20
2022-12-16T20:52:50.748Z,17.20
2022-12-16T20:55:40.391Z,17.20
2022-12-16T20:58:31.019Z,17.10
2022-12-16T21:01:21.836Z,17.10
2022-12-16T21:04:09.885Z,17.10
2022-12-16T21:07:03.002Z,17.00
2022-12-16T21:09:51.817Z,17.00
2022-12-16T21:12:39.863Z,17.00
2022-12-16T21:15:30.264Z,17.10
2022-12-16T21:18:24.941Z,17.10
2022-12-16T21:21:14.792Z,17.30
2022-12-16T21:24:03.806Z,17.30
2022-12-16T21:26:52.620Z,17.40
2022-12-16T21:29:46.490Z,17.50
2022-12-16T21:32:44.348Z,17.40
2022-12-16T21:35:47.830Z,17.50
2022-12-16T21:38:39.603Z,17.50
2022-12-16T21:41:29.984Z,17.50
2022-12-16T21:44:20.831Z,17.50
2022-12-16T21:47:09.799Z,17.50
2022-12-16T21:49:58.960Z,17.40
2022-12-16T21:52:49.781Z,17.40
2022-12-16T21:55:39.536Z,17.50
2022-12-16T21:58:34.699Z,17.50
2022-12-16T22:01:26.908Z,17.50
2022-12-16T22:04:15.592Z,17.60
2022-12-16T22:07:04.737Z,17.60
2022-12-16T22:09:56.466Z,17.60
2022-12-16T22:12:42.713Z,17.60
2022-12-16T22:15:29.494Z,17.60
2022-12-16T22:18:20.932Z,17.60
2022-12-16T22:21:28.075Z,17.50
2022-12-16T22:24:20.646Z,17.50
2022-12-16T22:27:10.848Z,17.40
2022-12-16T22:29:59.501Z,17.30
2022-12-16T22:32:50.332Z,17.40
2022-12-16T22:35:37.940Z,17.40
2022-12-16T22:38:26.535Z,17.40
2022-12-16T22:41:18.566Z,17.50
2022-12-16T22:44:08.547Z,17.50
2022-12-16T22:47:00.167Z,17.50
2022-12-16T22:49:49.935Z,17.40
2022-12-16T22:52:40.853Z,17.30
2022-12-16T22:55:28.517Z,17.30
2022-12-16T22:58:17.575Z,17.30
2022-12-16T23:01:07.795Z,17.20
2022-12-16T23:03:58.009Z,17.20
2022-12-16T23:06:48.032Z,17.00
2022-12-16T23:09:40.986Z,16.50
2022-12-16T23:12:30.930Z,16.10
2022-12-16T23:15:22.761Z,15.70
2022-12-16T23:18:11.890Z,15.20
2022-12-16T23:21:06.665Z,15.00
2022-12-16T23:23:56.978Z,14.60
2022-12-16T23:26:47.896Z,14.30
2022-12-16T23:29:36.660Z,14.10
2022-12-16T23:32:22.793Z,14.00
2022-12-16T23:35:10.637Z,13.90
2022-12-16T23:37:57.930Z,13.70
2022-12-16T23:40:47.795Z,13.60
2022-12-16T23:43:38.224Z,13.70
2022-12-16T23:46:28.688Z,13.60
2022-12-16T23:49:18.107Z,13.50
2022-12-16T23:52:06.398Z,13.20
2022-12-16T23:54:53.626Z,13.00
2022-12-16T23:57:46.256Z,12.70
